Pagina principale
METAR-TAF:

METAR-TAF

Aeroporti :

Aeroporto di Bacău

Bacau, Romania

latitudine: 46-35N, longitudine: 026-58E, altezza: 184 m

Osservazione

Il bollettino è stato emesso 20 minuti fa, alle 01:00 UTC
Vento 2 kt da nord/nord-ovest
Temperature 14°C
Umidità 82%
Pressione 1022 hPa
Visibilità 10 km o più
nessuna nube inferiore a 1500 m e nessun cumulonembo

METAR: LRBC 210100Z 33002KT CAVOK 14/11 Q1022

Ora: 04:20 (01:20 UTC)

Previsione

Il bollettino è stato emesso 2 ore e 20 minuti fa, alle 23:00 UTC
Previsione valida dal 21 alle 00 UTC al 21 alle 09 UTC
Vento 4 kt da direzioni variabili
Visibilità 10 km o più
nessuna nube inferiore a 1500 m e nessun cumulonembo
Evoluzione graduale
dal 21 alle 05 UTC al 21 alle 07 UTC
Vento 10 kt da sud/sud-est

TAF: LRBC 202300Z 2100/2109 VRB04KT CAVOK BECMG 2105/2107 15010KT

Osservazioni e previsioni meteorologiche di più di 4000 aeroporti (messaggi METAR e TAF).

Le stazioni disponibili sono rappresentate dai dischi gialli e rossi sulla carta.

Puntare il mouse per vedere il nome della stazione.

Clicca sopra per visualizzare le osservazioni e previsioni meteorologiche.

Per cambiare la mappa : fare clic sui pulsanti verdi con una croce nera per ingrandire, il pulsante verde con un trattino per diminuire, o sulla freccia verde per le mappe adiacenti.


METAR-TAF: